Time;durP1;ratioP1;P1;durP2;ratioP2;P2;SDS_P1;SDS_P2;PMS_P1;PMS_P2;Temp;Humidity;BMP_temperature;BMP_pressure;BME280_temperature;BME280_humidity;BME280_pressure;Samples;Min_cycle;Max_cycle;Signal;HPM_P1;HPM_P2
2022/08/04 00:01:46;;;;;;;;;;;;;;;-142.75;100.00;75668.84;4998754;28;19914;-64
2022/08/04 00:04:17;;;;;;;;;;;;;;;-142.75;100.00;75666.88;4998418;28;19913;-64
2022/08/04 00:06:57;;;;;;;;;;;;;;;-142.75;100.00;75676.69;5015823;28;20367;-64
2022/08/04 00:09:28;;;;;;;;;;;;;;;-142.75;100.00;75668.84;5016171;28;20008;-63
2022/08/04 00:11:56;;;;;;;;;;;;;;;-142.75;100.00;75684.56;5016149;28;19914;-64
2022/08/04 00:14:23;;;;;;;;;;;;;;;-142.75;100.00;75692.44;5016606;28;19913;-64
2022/08/04 00:16:51;;;;;;;;;;;;;;;-142.75;100.00;75678.66;5016232;28;19924;-64
2022/08/04 00:19:17;;;;;;;;;;;;;;;-142.75;100.00;75674.72;5016798;28;19975;-64
2022/08/04 00:21:50;;;;;;;;;;;;;;;-142.75;100.00;75680.63;4998409;28;20385;-64
2022/08/04 00:24:15;;;;;;;;;;;;;;;-142.75;100.00;75672.78;5015736;28;19921;-64
2022/08/04 00:26:42;;;;;;;;;;;;;;;-142.75;100.00;75676.69;5015936;28;19917;-64
2022/08/04 00:29:07;;;;;;;;;;;;;;;-142.75;100.00;75676.69;5015908;28;19969;-64
2022/08/04 00:31:32;;;;;;;;;;;;;;;-142.75;100.00;75676.69;5015625;28;19949;-65
2022/08/04 00:33:58;;;;;;;;;;;;;;;-142.75;100.00;75688.50;5015014;28;19926;-64
2022/08/04 00:36:25;;;;;;;;;;;;;;;-142.75;100.00;75686.53;5014992;28;19913;-64
2022/08/04 00:38:51;;;;;;;;;;;;;;;-142.75;100.00;75688.50;5015257;28;19913;-64
2022/08/04 00:41:19;;;;;;;;;;;;;;;-142.75;100.00;75694.41;5015410;28;19947;-64
2022/08/04 00:43:46;;;;;;;;;;;;;;;-142.75;100.00;75686.53;5015491;28;19960;-64
2022/08/04 00:46:20;;;;;;;;;;;;;;;-142.75;100.00;75688.50;5015488;28;19917;-64
2022/08/04 00:48:46;;;;;;;;;;;;;;;-142.75;100.00;75688.50;5014916;28;19921;-64
2022/08/04 00:51:30;;;;;;;;;;;;;;;-142.75;100.00;75692.44;5015423;28;20024;-64
2022/08/04 00:54:04;;;;;;;;;;;;;;;-142.75;100.00;75704.25;5015065;28;19917;-65
2022/08/04 00:56:41;;;;;;;;;;;;;;;-142.75;100.00;75720.00;5015031;28;19960;-65
2022/08/04 00:59:28;;;;;;;;;;;;;;;-142.75;100.00;75721.97;5015118;28;19914;-64
2022/08/04 01:02:04;;;;;;;;;;;;;;;-142.75;100.00;75720.00;5014833;28;19917;-64
2022/08/04 01:04:29;;;;;;;;;;;;;;;-142.75;100.00;75743.63;5014803;28;19924;-64
2022/08/04 01:07:00;;;;;;;;;;;;;;;-142.75;100.00;75739.69;5014594;28;19921;-64
2022/08/04 01:09:38;;;;;;;;;;;;;;;-142.75;100.00;75747.56;5014602;28;20020;-65
2022/08/04 01:12:10;;;;;;;;;;;;;;;-142.75;100.00;75767.22;5014689;28;19914;-64
2022/08/04 01:14:41;;;;;;;;;;;;;;;-142.75;100.00;75763.28;5014413;28;20020;-64
2022/08/04 01:17:17;;;;;;;;;;;;;;;-142.75;100.00;75769.19;5014271;28;19913;-64
2022/08/04 01:19:48;;;;;;;;;;;;;;;-142.75;100.00;75779.03;5014570;28;19913;-64
2022/08/04 01:22:17;;;;;;;;;;;;;;;-142.75;100.00;75779.03;5014490;28;20297;-64
2022/08/04 01:24:42;;;;;;;;;;;;;;;-142.75;100.00;75786.91;5014349;28;19941;-64
2022/08/04 01:27:25;;;;;;;;;;;;;;;-142.75;100.00;75782.97;5014040;28;20291;-64
2022/08/04 01:29:54;;;;;;;;;;;;;;;-142.75;100.00;75784.94;5014441;28;19917;-64
2022/08/04 01:32:39;;;;;;;;;;;;;;;-142.75;100.00;75771.16;5014354;28;19917;-64
2022/08/04 01:35:10;;;;;;;;;;;;;;;-142.75;100.00;75763.28;5013695;28;19913;-64
2022/08/04 01:37:38;;;;;;;;;;;;;;;-142.75;100.00;75763.28;5013974;28;19967;-64
2022/08/04 01:40:05;;;;;;;;;;;;;;;-142.75;100.00;75749.53;5014284;28;19920;-64
2022/08/04 01:42:32;;;;;;;;;;;;;;;-142.75;100.00;75757.41;5014181;28;20306;-64
2022/08/04 01:44:59;;;;;;;;;;;;;;;-142.75;100.00;75765.25;5014055;28;19913;-65
2022/08/04 01:47:27;;;;;;;;;;;;;;;-142.75;100.00;75782.97;5013851;28;20267;-64
2022/08/04 01:49:53;;;;;;;;;;;;;;;-142.75;100.00;75782.97;5013810;28;19918;-64
2022/08/04 01:52:19;;;;;;;;;;;;;;;-142.75;100.00;75808.56;5014023;28;19921;-64
2022/08/04 01:54:45;;;;;;;;;;;;;;;-142.75;100.00;75814.47;5013768;28;19918;-64
2022/08/04 01:57:11;;;;;;;;;;;;;;;-142.75;100.00;75840.06;5013728;28;19920;-64
2022/08/04 01:59:37;;;;;;;;;;;;;;;-142.75;100.00;75836.13;5014060;28;19992;-64
2022/08/04 02:02:02;;;;;;;;;;;;;;;-142.75;100.00;75838.09;5013888;28;20407;-64
2022/08/04 02:04:28;;;;;;;;;;;;;;;-142.75;100.00;75845.97;5013701;28;20009;-65
2022/08/04 02:07:12;;;;;;;;;;;;;;;-142.75;100.00;75845.97;5013561;28;19912;-64
2022/08/04 02:09:42;;;;;;;;;;;;;;;-142.75;100.00;75853.84;5013654;28;19957;-64
2022/08/04 02:12:16;;;;;;;;;;;;;;;-142.75;100.00;75845.97;5013622;28;19920;-64
2022/08/04 02:14:49;;;;;;;;;;;;;;;-142.75;100.00;75842.03;5013409;28;19914;-64
2022/08/04 02:17:21;;;;;;;;;;;;;;;-142.75;100.00;75820.38;5013390;28;19920;-64
2022/08/04 02:20:00;;;;;;;;;;;;;;;-142.75;100.00;75818.41;5013698;28;19913;-65
2022/08/04 02:22:27;;;;;;;;;;;;;;;-142.75;100.00;75818.41;5013782;28;19913;-64
2022/08/04 02:24:56;;;;;;;;;;;;;;;-142.75;100.00;75828.25;5013335;28;19913;-64
2022/08/04 02:27:28;;;;;;;;;;;;;;;-142.75;100.00;75834.16;5013108;28;19921;-65
2022/08/04 02:29:57;;;;;;;;;;;;;;;-142.75;100.00;75814.47;5013556;28;19918;-64
2022/08/04 02:32:28;;;;;;;;;;;;;;;-142.75;100.00;75804.63;5013470;28;19913;-64
2022/08/04 02:34:55;;;;;;;;;;;;;;;-142.75;100.00;75798.72;5013336;28;19913;-64
2022/08/04 02:37:23;;;;;;;;;;;;;;;-142.75;100.00;75798.72;5013181;28;19913;-65
2022/08/04 02:39:51;;;;;;;;;;;;;;;-142.75;100.00;75779.03;5013371;28;19914;-64
2022/08/04 02:42:17;;;;;;;;;;;;;;;-142.75;100.00;75782.97;5013168;28;19914;-65
2022/08/04 02:44:47;;;;;;;;;;;;;;;-142.75;100.00;75779.03;5013165;28;19920;-64
2022/08/04 02:47:13;;;;;;;;;;;;;;;-142.75;100.00;75769.19;5013219;28;19967;-64
2022/08/04 02:49:40;;;;;;;;;;;;;;;-142.75;100.00;75763.28;5013052;28;19929;-65
2022/08/04 02:52:06;;;;;;;;;;;;;;;-142.75;100.00;75777.06;5013221;28;19921;-64
2022/08/04 02:54:33;;;;;;;;;;;;;;;-142.75;100.00;75786.91;5012728;28;20394;-64
2022/08/04 02:56:59;;;;;;;;;;;;;;;-142.75;100.00;75800.69;5012620;28;19984;-64
2022/08/04 02:59:25;;;;;;;;;;;;;;;-142.75;100.00;75818.41;5012609;28;20394;-64
2022/08/04 03:01:53;;;;;;;;;;;;;;;-142.75;100.00;75822.34;5012919;28;20012;-64
2022/08/04 03:04:32;;;;;;;;;;;;;;;-142.75;100.00;75826.28;5012160;28;20136;-64
2022/08/04 03:07:17;;;;;;;;;;;;;;;-142.75;100.00;75826.28;5012842;28;19975;-63
2022/08/04 03:09:45;;;;;;;;;;;;;;;-142.75;100.00;75828.25;5012750;28;19917;-65
2022/08/04 03:12:23;;;;;;;;;;;;;;;-142.75;100.00;75847.94;5012638;28;19917;-64
2022/08/04 03:14:48;;;;;;;;;;;;;;;-142.75;100.00;75845.97;5012700;28;19917;-64
2022/08/04 03:17:32;;;;;;;;;;;;;;;-142.75;100.00;75844.00;5012310;28;20027;-64
2022/08/04 03:20:09;;;;;;;;;;;;;;;-142.75;100.00;75834.16;5012653;28;19913;-64
2022/08/04 03:22:55;;;;;;;;;;;;;;;-142.75;100.00;75830.22;4994924;28;19913;-64
2022/08/04 03:25:40;;;;;;;;;;;;;;;-142.75;100.00;75818.41;5012537;28;19968;-64
2022/08/04 03:28:11;;;;;;;;;;;;;;;-142.75;100.00;75824.31;5012167;28;19921;-64
2022/08/04 03:30:42;;;;;;;;;;;;;;;-142.75;100.00;75822.34;5012567;28;19921;-64
2022/08/04 03:33:19;;;;;;;;;;;;;;;-142.75;100.00;75834.16;5012510;28;19920;-64
2022/08/04 03:35:44;;;;;;;;;;;;;;;-142.75;100.00;75834.16;5012439;28;19913;-64
2022/08/04 03:38:28;;;;;;;;;;;;;;;-142.75;100.00;75826.28;5012043;28;19920;-64
2022/08/04 03:40:53;;;;;;;;;;;;;;;-142.75;100.00;75836.13;5012430;28;20391;-64
2022/08/04 03:43:33;;;;;;;;;;;;;;;-142.75;100.00;75834.16;5010944;28;19952;-64
2022/08/04 03:46:04;;;;;;;;;;;;;;;-142.75;100.00;75828.25;5012363;28;20008;-64
2022/08/04 03:48:29;;;;;;;;;;;;;;;-142.75;100.00;75838.09;5011949;28;19964;-64
2022/08/04 03:53:54;;;;;;;;;;;;;;;-142.75;100.00;75834.16;5013688;28;20338;-64
2022/08/04 03:56:37;;;;;;;;;;;;;;;-142.75;100.00;75824.31;5012303;28;20379;-64
2022/08/04 03:59:13;;;;;;;;;;;;;;;-142.75;100.00;75806.59;5012181;28;20442;-64
2022/08/04 04:01:47;;;;;;;;;;;;;;;-142.75;100.00;75806.59;5012288;28;19924;-64
2022/08/04 04:04:31;;;;;;;;;;;;;;;-142.75;100.00;75800.69;5012209;28;20111;-64
2022/08/04 04:07:03;;;;;;;;;;;;;;;-142.75;100.00;75786.91;4994269;28;19914;-64
2022/08/04 04:09:28;;;;;;;;;;;;;;;-142.75;100.00;75798.72;5012324;28;19971;-64
2022/08/04 04:12:09;;;;;;;;;;;;;;;-142.75;100.00;75794.78;5015902;28;20392;-64
2022/08/04 04:14:45;;;;;;;;;;;;;;;-142.75;100.00;75818.41;5015846;28;20367;-64
2022/08/04 04:17:16;;;;;;;;;;;;;;;-142.75;100.00;75812.50;5015717;28;19913;-64
2022/08/04 04:19:44;;;;;;;;;;;;;;;-142.75;100.00;75836.13;5015806;28;19913;-64
2022/08/04 04:22:16;;;;;;;;;;;;;;;-142.75;100.00;75842.03;5015621;28;19913;-64
2022/08/04 04:24:53;;;;;;;;;;;;;;;-142.75;100.00;75851.88;5015584;28;19914;-64
2022/08/04 04:27:31;;;;;;;;;;;;;;;-142.75;100.00;75857.78;5015359;28;19920;-64
2022/08/04 04:30:02;;;;;;;;;;;;;;;-142.75;100.00;75845.97;5015551;28;20012;-64
2022/08/04 04:32:46;;;;;;;;;;;;;;;-142.75;100.00;75845.97;5015383;28;20268;-64
2022/08/04 04:35:14;;;;;;;;;;;;;;;-142.75;100.00;75840.06;5015352;28;19913;-64
2022/08/04 04:37:42;;;;;;;;;;;;;;;-142.75;100.00;75834.16;5015344;28;20007;-64
2022/08/04 04:40:26;;;;;;;;;;;;;;;-142.75;100.00;75845.97;4997613;28;19988;-64
2022/08/04 04:42:51;;;;;;;;;;;;;;;-142.75;100.00;75855.81;5015106;28;19917;-64
2022/08/04 04:45:35;;;;;;;;;;;;;;;-142.75;100.00;75851.88;5015090;28;19918;-64
2022/08/04 04:48:00;;;;;;;;;;;;;;;-142.75;100.00;75849.91;5014867;28;19924;-64
2022/08/04 04:50:45;;;;;;;;;;;;;;;-142.75;100.00;75851.88;4997580;28;19914;-64
2022/08/04 04:53:26;;;;;;;;;;;;;;;-142.75;100.00;75847.94;5004957;28;20027;-64
2022/08/04 04:56:09;;;;;;;;;;;;;;;-142.75;100.00;75857.78;5015055;28;20391;-64
2022/08/04 04:58:35;;;;;;;;;;;;;;;-142.75;100.00;75849.91;5014699;28;20375;-64
2022/08/04 05:01:11;;;;;;;;;;;;;;;-142.75;100.00;75857.78;5014944;28;19914;-64
2022/08/04 05:03:38;;;;;;;;;;;;;;;-142.75;100.00;75847.94;5014765;28;19951;-64
2022/08/04 05:06:26;;;;;;;;;;;;;;;-142.75;100.00;75838.09;5014815;28;19914;-65
2022/08/04 05:08:52;;;;;;;;;;;;;;;-142.75;100.00;75842.03;5014154;28;19917;-64
2022/08/04 05:11:29;;;;;;;;;;;;;;;-142.75;100.00;75834.16;5014775;28;19920;-65
2022/08/04 05:14:03;;;;;;;;;;;;;;;-142.75;100.00;75826.28;5014693;28;19920;-65
2022/08/04 05:16:33;;;;;;;;;;;;;;;-142.75;100.00;75818.41;5014623;28;19954;-64
2022/08/04 05:19:16;;;;;;;;;;;;;;;-142.75;100.00;75814.47;5014522;28;19917;-65
2022/08/04 05:21:43;;;;;;;;;;;;;;;-142.75;100.00;75810.53;5014220;28;19914;-64
2022/08/04 05:24:10;;;;;;;;;;;;;;;-142.75;100.00;75804.63;5014356;28;19918;-63
2022/08/04 05:26:47;;;;;;;;;;;;;;;-142.75;100.00;75798.72;5014293;28;20473;-64
2022/08/04 05:29:17;;;;;;;;;;;;;;;-142.75;100.00;75794.78;5014339;28;19980;-64
2022/08/04 05:31:48;;;;;;;;;;;;;;;-142.75;100.00;75790.84;5014444;28;19920;-64
2022/08/04 05:34:19;;;;;;;;;;;;;;;-142.75;100.00;75782.97;5012390;28;20397;-65
2022/08/04 05:36:48;;;;;;;;;;;;;;;-142.75;100.00;75786.91;5016112;28;19918;-64
2022/08/04 05:39:43;;;;;;;;;;;;;;;-142.75;100.00;75794.78;5014269;28;19920;-64
2022/08/04 05:42:10;;;;;;;;;;;;;;;-142.75;100.00;75802.66;5001238;28;20375;-64
2022/08/04 05:44:35;;;;;;;;;;;;;;;-142.75;100.00;75804.63;5014063;28;20346;-64
2022/08/04 05:47:03;;;;;;;;;;;;;;;-142.75;100.00;75800.69;5013754;28;19914;-64
2022/08/04 05:49:28;;;;;;;;;;;;;;;-142.75;100.00;75792.81;5013825;28;20011;-64
2022/08/04 05:51:54;;;;;;;;;;;;;;;-142.75;100.00;75792.81;5013967;28;20371;-64
2022/08/04 05:54:20;;;;;;;;;;;;;;;-142.75;100.00;75802.66;5041558;22;19925;-65
2022/08/04 05:56:47;;;;;;;;;;;;;;;-142.75;100.00;75802.66;5031349;28;19921;-66
2022/08/04 05:59:13;;;;;;;;;;;;;;;-142.75;100.00;75800.69;5032694;28;20529;-66
2022/08/04 06:01:39;;;;;;;;;;;;;;;-142.75;100.00;75798.72;5033480;28;19941;-64
2022/08/04 06:04:05;;;;;;;;;;;;;;;-142.75;100.00;75800.69;5033247;28;19913;-66
2022/08/04 06:06:31;;;;;;;;;;;;;;;-142.75;100.00;75796.75;5033234;28;19919;-65
2022/08/04 06:08:56;;;;;;;;;;;;;;;-142.75;100.00;75798.72;5033126;28;20008;-66
2022/08/04 06:11:22;;;;;;;;;;;;;;;-142.75;100.00;75790.84;5033233;28;20379;-66
2022/08/04 06:13:52;;;;;;;;;;;;;;;-142.75;100.00;75777.06;5033208;28;19913;-65
2022/08/04 06:16:22;;;;;;;;;;;;;;;-142.75;100.00;75773.13;5033210;28;19913;-66
2022/08/04 06:18:49;;;;;;;;;;;;;;;-142.75;100.00;75757.41;5032788;28;19913;-66
2022/08/04 06:21:17;;;;;;;;;;;;;;;-142.75;100.00;75753.47;5033107;28;19913;-65
2022/08/04 06:23:44;;;;;;;;;;;;;;;-142.75;100.00;75739.69;5033031;28;19939;-67
2022/08/04 06:26:11;;;;;;;;;;;;;;;-142.75;100.00;75747.56;5032974;28;19919;-67
2022/08/04 06:28:37;;;;;;;;;;;;;;;-142.75;100.00;75733.78;5032660;28;20012;-66
2022/08/04 06:31:04;;;;;;;;;;;;;;;-142.75;100.00;75720.00;5032897;28;19913;-66
2022/08/04 06:33:33;;;;;;;;;;;;;;;-142.75;100.00;75718.03;5032099;28;19917;-66
2022/08/04 06:35:59;;;;;;;;;;;;;;;-142.75;100.00;75716.06;5032856;28;20338;-66
2022/08/04 06:38:26;;;;;;;;;;;;;;;-142.75;100.00;75702.28;5032564;28;19967;-65
2022/08/04 06:40:52;;;;;;;;;;;;;;;-142.75;100.00;75682.59;5032812;28;19959;-66
2022/08/04 06:43:18;;;;;;;;;;;;;;;-142.75;100.00;75676.69;5032791;28;19913;-65
2022/08/04 06:45:44;;;;;;;;;;;;;;;-142.75;100.00;75668.84;5032600;28;19914;-66
2022/08/04 06:48:11;;;;;;;;;;;;;;;-142.75;100.00;75631.44;5032277;28;19968;-66
2022/08/04 06:50:36;;;;;;;;;;;;;;;-142.75;100.00;75596.00;5032686;28;19914;-68
2022/08/04 06:53:02;;;;;;;;;;;;;;;-142.75;100.00;75574.38;5032633;28;19970;-66
2022/08/04 06:55:28;;;;;;;;;;;;;;;-142.75;100.00;75546.81;5032366;28;19917;-66
2022/08/04 06:57:53;;;;;;;;;;;;;;;-142.75;100.00;75505.50;5032266;28;19913;-67
2022/08/04 07:00:19;;;;;;;;;;;;;;;-142.75;100.00;75475.97;5032448;28;19917;-66
2022/08/04 07:02:49;;;;;;;;;;;;;;;-142.75;100.00;75472.03;5032391;28;19952;-66
2022/08/04 07:05:15;;;;;;;;;;;;;;;-142.75;100.00;75470.06;5032395;28;20345;-65
2022/08/04 07:07:40;;;;;;;;;;;;;;;-142.75;100.00;75464.16;5032058;28;19913;-66
2022/08/04 07:10:07;;;;;;;;;;;;;;;-142.75;100.00;75454.31;5032269;28;19917;-68
2022/08/04 07:12:32;;;;;;;;;;;;;;;-142.75;100.00;75444.47;5032354;28;19913;-68
2022/08/04 07:14:58;;;;;;;;;;;;;;;-142.75;100.00;75434.66;5032089;28;20410;-65
2022/08/04 07:17:24;;;;;;;;;;;;;;;-142.75;100.00;75462.19;5031842;28;19917;-67
2022/08/04 07:19:49;;;;;;;;;;;;;;;-142.75;100.00;75456.28;5032221;28;20333;-65
2022/08/04 07:22:15;;;;;;;;;;;;;;;-142.75;100.00;75460.22;5032216;28;19913;-66
2022/08/04 07:24:40;;;;;;;;;;;;;;;-142.75;100.00;75452.34;5032152;28;19920;-65
2022/08/04 07:27:06;;;;;;;;;;;;;;;-142.75;100.00;75434.66;5031819;28;20055;-66
2022/08/04 07:29:31;;;;;;;;;;;;;;;-142.75;100.00;75430.72;5031975;28;19917;-67
2022/08/04 07:31:57;;;;;;;;;;;;;;;-142.75;100.00;75379.53;5032038;28;19913;-67
2022/08/04 07:34:23;;;;;;;;;;;;;;;-142.75;100.00;75338.22;5032061;28;20458;-66
2022/08/04 07:36:50;;;;;;;;;;;;;;;-142.75;100.00;75316.56;5031586;28;19913;-66
2022/08/04 07:39:15;;;;;;;;;;;;;;;-142.75;100.00;75318.53;5014315;28;20054;-65
2022/08/04 07:41:41;;;;;;;;;;;;;;;-142.75;100.00;75326.41;5014317;28;20366;-63
2022/08/04 07:44:07;;;;;;;;;;;;;;;-142.75;100.00;75336.25;5015484;28;19917;-66
2022/08/04 07:46:32;;;;;;;;;;;;;;;-142.75;100.00;75352.00;5017945;28;19919;-65
2022/08/04 07:49:01;;;;;;;;;;;;;;;-142.75;100.00;75334.28;5035828;28;20397;-66
2022/08/04 07:51:27;;;;;;;;;;;;;;;-142.75;100.00;75275.25;5035930;28;19992;-66
2022/08/04 07:53:53;;;;;;;;;;;;;;;-142.75;100.00;75245.72;5034540;28;19967;-65
2022/08/04 07:56:18;;;;;;;;;;;;;;;-142.75;100.00;75200.47;5034957;28;19913;-65
2022/08/04 07:58:43;;;;;;;;;;;;;;;-142.75;100.00;75202.44;5016741;28;19979;-66
2022/08/04 08:01:09;;;;;;;;;;;;;;;-142.75;100.00;75218.19;5017260;28;20011;-65
2022/08/04 08:03:35;;;;;;;;;;;;;;;-142.75;100.00;75214.25;5034795;28;19913;-65
2022/08/04 08:06:02;;;;;;;;;;;;;;;-142.75;100.00;75231.94;5034574;28;19913;-66
2022/08/04 08:08:28;;;;;;;;;;;;;;;-142.75;100.00;75269.34;5016254;28;19939;-66
2022/08/04 08:10:53;;;;;;;;;;;;;;;-142.75;100.00;75265.41;5016944;28;20383;-65
2022/08/04 08:13:18;;;;;;;;;;;;;;;-142.75;100.00;75285.09;5016544;28;19913;-66
2022/08/04 08:15:44;;;;;;;;;;;;;;;-142.75;100.00;75249.66;5034308;28;19913;-65
2022/08/04 08:18:10;;;;;;;;;;;;;;;-142.75;100.00;75194.56;5034065;28;19913;-66
2022/08/04 08:20:35;;;;;;;;;;;;;;;-142.75;100.00;75161.13;5016812;28;19936;-65
2022/08/04 08:23:01;;;;;;;;;;;;;;;-142.75;100.00;75133.56;5016626;28;20397;-65
2022/08/04 08:25:28;;;;;;;;;;;;;;;-142.75;100.00;75109.94;5016482;28;19913;-66
2022/08/04 08:27:53;;;;;;;;;;;;;;;-142.75;100.00;75125.69;5034077;28;19924;-67
2022/08/04 08:30:18;;;;;;;;;;;;;;;-142.75;100.00;75133.56;5035110;28;19929;-66
2022/08/04 08:32:44;;;;;;;;;;;;;;;-142.75;100.00;75098.16;5035192;28;20371;-67
2022/08/04 08:35:09;;;;;;;;;;;;;;;-142.75;100.00;75137.50;5035148;28;19936;-66
2022/08/04 08:37:37;;;;;;;;;;;;;;;-142.75;100.00;75161.13;5033777;28;19917;-66
2022/08/04 08:40:02;;;;;;;;;;;;;;;-142.75;100.00;75198.50;5036428;28;19939;-66
2022/08/04 08:42:40;;;;;;;;;;;;;;;-142.75;100.00;75167.00;5016783;28;19913;-66
2022/08/04 08:45:12;;;;;;;;;;;;;;;-142.75;100.00;75155.22;5016969;28;19944;-66
2022/08/04 08:48:01;;;;;;;;;;;;;;;-142.75;100.00;75178.81;5053042;28;20453;-66
2022/08/04 08:50:45;;;;;;;;;;;;;;;-142.75;100.00;75196.53;5054621;28;19917;-66
2022/08/04 08:53:29;;;;;;;;;;;;;;;-142.75;100.00;75194.56;5054383;28;20437;-66
2022/08/04 08:55:57;;;;;;;;;;;;;;;-142.75;100.00;75168.97;5053656;28;20374;-66
2022/08/04 08:58:31;;;;;;;;;;;;;;;-142.75;100.00;75155.22;5045561;28;20435;-67
2022/08/04 09:01:09;;;;;;;;;;;;;;;-142.75;100.00;75133.56;5034425;28;19996;-67
2022/08/04 09:03:57;;;;;;;;;;;;;;;-142.75;100.00;75137.50;5034190;28;19913;-67
2022/08/04 09:06:37;;;;;;;;;;;;;;;-142.75;100.00;75109.94;5014887;28;20394;-66
2022/08/04 09:09:11;;;;;;;;;;;;;;;-142.75;100.00;75119.78;5034133;28;20405;-66
2022/08/04 09:11:42;;;;;;;;;;;;;;;-142.75;100.00;75135.53;5033840;28;19913;-66
2022/08/04 09:14:15;;;;;;;;;;;;;;;-142.75;100.00;75141.44;5016175;28;19960;-66
2022/08/04 09:16:52;;;;;;;;;;;;;;;-142.75;100.00;75137.50;5034106;28;19913;-68
2022/08/04 09:19:18;;;;;;;;;;;;;;;-142.75;100.00;75139.47;5034389;28;19956;-66
2022/08/04 09:21:49;;;;;;;;;;;;;;;-142.75;100.00;75168.97;5016387;28;19940;-67
2022/08/04 09:24:33;;;;;;;;;;;;;;;-142.75;100.00;75182.75;5034017;28;19913;-67
2022/08/04 09:27:02;;;;;;;;;;;;;;;-142.75;100.00;75204.41;5033873;28;19913;-67
2022/08/04 09:29:40;;;;;;;;;;;;;;;-142.75;100.00;75243.75;5034038;28;19971;-67
2022/08/04 09:32:11;;;;;;;;;;;;;;;-142.75;100.00;75243.75;5034087;28;19913;-66
2022/08/04 09:34:39;;;;;;;;;;;;;;;-142.75;100.00;75275.25;5033839;28;19913;-68
2022/08/04 09:37:23;;;;;;;;;;;;;;;-142.75;100.00;75271.31;5032840;28;19936;-68
2022/08/04 09:39:55;;;;;;;;;;;;;;;-142.75;100.00;75263.44;5014333;28;19913;-67
2022/08/04 09:42:32;;;;;;;;;;;;;;;-142.75;100.00;75287.06;5032222;28;19983;-68
2022/08/04 09:45:00;;;;;;;;;;;;;;;-142.75;100.00;75277.22;5031907;28;19917;-68
2022/08/04 09:47:32;;;;;;;;;;;;;;;-142.75;100.00;75294.94;5031827;28;20489;-67
2022/08/04 09:50:13;;;;;;;;;;;;;;;-142.75;100.00;75302.78;5031881;28;19917;-67
2022/08/04 09:52:53;;;;;;;;;;;;;;;-142.75;100.00;75291.00;5033055;28;20011;-67
2022/08/04 09:55:30;;;;;;;;;;;;;;;-142.75;100.00;75304.75;5033380;28;19917;-68
2022/08/04 09:57:55;;;;;;;;;;;;;;;-142.75;100.00;75314.59;5033290;28;19917;-69
2022/08/04 10:00:20;;;;;;;;;;;;;;;-142.75;100.00;75312.63;5033557;28;19967;-67
2022/08/04 10:02:49;;;;;;;;;;;;;;;-142.75;100.00;75330.34;5033570;28;20388;-69
2022/08/04 10:05:19;;;;;;;;;;;;;;;-142.75;100.00;75310.66;5033379;28;19920;-67
2022/08/04 10:07:56;;;;;;;;;;;;;;;-142.75;100.00;75285.09;5032054;28;19914;-68
2022/08/04 10:10:31;;;;;;;;;;;;;;;-142.75;100.00;75259.50;5033327;28;19917;-67
2022/08/04 10:13:04;;;;;;;;;;;;;;;-142.75;100.00;75255.56;5033216;28;19919;-68
2022/08/04 10:15:35;;;;;;;;;;;;;;;-142.75;100.00;75247.69;5033262;28;19919;-67
2022/08/04 10:18:27;;;;;;;;;;;;;;;-142.75;100.00;75235.88;5032924;28;20007;-68
2022/08/04 10:20:52;;;;;;;;;;;;;;;-142.75;100.00;75231.94;5033309;28;19919;-67
2022/08/04 10:23:17;;;;;;;;;;;;;;;-142.75;100.00;75222.13;5033063;28;19913;-66
2022/08/04 10:25:52;;;;;;;;;;;;;;;-142.75;100.00;75220.16;5032938;28;20291;-67
2022/08/04 10:28:20;;;;;;;;;;;;;;;-142.75;100.00;75224.09;5032704;28;19913;-67
2022/08/04 10:30:50;;;;;;;;;;;;;;;-142.75;100.00;75237.84;5032868;28;19967;-67
2022/08/04 10:33:15;;;;;;;;;;;;;;;-142.75;100.00;75239.81;5032947;28;19917;-67
2022/08/04 10:35:45;;;;;;;;;;;;;;;-142.75;100.00;75210.31;5032961;28;20397;-67
2022/08/04 10:38:18;;;;;;;;;;;;;;;-142.75;100.00;75168.97;5032465;28;20385;-67
2022/08/04 10:40:55;;;;;;;;;;;;;;;-142.75;100.00;75153.25;5032893;28;19913;-67
2022/08/04 10:43:40;;;;;;;;;;;;;;;-142.75;100.00;75174.88;5032839;28;19959;-68
2022/08/04 10:46:08;;;;;;;;;;;;;;;-142.75;100.00;75119.78;5032769;28;19917;-67
2022/08/04 10:48:50;;;;;;;;;;;;;;;-142.75;98.14;75088.31;5014543;28;19928;-67
2022/08/04 10:51:37;;;;;;;;;;;;;;;-142.75;96.83;75031.25;5032594;28;19913;-67
2022/08/04 10:54:06;;;;;;;;;;;;;;;-142.75;87.42;75005.66;5032479;28;19939;-67
2022/08/04 10:56:31;;;;;;;;;;;;;;;-142.75;85.40;74960.41;5032339;28;19920;-67
2022/08/04 10:58:59;;;;;;;;;;;;;;;-142.75;80.75;74905.31;5014787;28;19913;-67
2022/08/04 11:01:28;;;;;;;;;;;;;;;-142.75;81.57;74869.88;5032474;28;19919;-68
2022/08/04 11:03:59;;;;;;;;;;;;;;;-142.75;77.89;74864.00;5032454;28;19913;-68
2022/08/04 11:06:25;;;;;;;;;;;;;;;-142.75;79.88;74854.16;5032287;28;19913;-68
2022/08/04 11:08:52;;;;;;;;;;;;;;;-142.75;80.96;74856.13;5032042;28;19943;-68
2022/08/04 11:11:21;;;;;;;;;;;;;;;-142.75;81.73;74779.38;5014556;28;19967;-67
2022/08/04 11:13:48;;;;;;;;;;;;;;;-142.75;78.91;74771.50;5032255;28;19913;-67
2022/08/04 11:16:16;;;;;;;;;;;;;;;-142.75;76.94;74767.56;5032366;28;19913;-67
2022/08/04 11:19:02;;;;;;;;;;;;;;;-142.75;72.98;74732.16;5031624;28;19920;-67
2022/08/04 11:21:32;;;;;;;;;;;;;;;-142.75;70.98;74688.88;5032242;28;19917;-67
2022/08/04 11:24:03;;;;;;;;;;;;;;;-142.75;69.01;74645.59;5032240;28;20338;-68
2022/08/04 11:26:48;;;;;;;;;;;;;;;-142.75;72.22;74679.03;5032178;28;19921;-67
2022/08/04 11:29:24;;;;;;;;;;;;;;;-142.75;71.35;74645.59;5031944;28;19928;-68
2022/08/04 11:31:49;;;;;;;;;;;;;;;-142.75;67.18;74625.91;5032192;28;20378;-67
2022/08/04 11:34:20;;;;;;;;;;;;;;;-142.75;70.44;74574.75;5032014;28;19913;-68
2022/08/04 11:36:51;;;;;;;;;;;;;;;-142.75;69.49;74596.41;5031858;28;19917;-68
2022/08/04 11:39:25;;;;;;;;;;;;;;;-142.75;66.86;74606.22;5032125;28;19920;-68
2022/08/04 11:41:52;;;;;;;;;;;;;;;-142.75;66.54;74610.16;5032022;28;20355;-68
2022/08/04 11:44:37;;;;;;;;;;;;;;;-142.75;69.29;74602.31;5032069;28;20371;-67
2022/08/04 11:47:12;;;;;;;;;;;;;;;-142.75;67.81;74606.22;5024126;28;19917;-69
2022/08/04 11:49:43;;;;;;;;;;;;;;;-142.75;66.18;74598.38;5031980;28;19975;-69
2022/08/04 11:52:09;;;;;;;;;;;;;;;-142.75;69.60;74659.34;5014129;28;19913;-68
2022/08/04 11:54:35;;;;;;;;;;;;;;;-142.75;69.88;74616.06;5044621;22;19925;-66
2022/08/04 11:57:01;;;;;;;;;;;;;;;-142.75;68.03;74661.31;5009031;28;20395;-66
2022/08/04 11:59:28;;;;;;;;;;;;;;;-142.75;68.37;74645.59;5011967;28;19917;-65
2022/08/04 12:01:56;;;;;;;;;;;;;;;-142.75;69.23;74653.47;5012542;28;19914;-65
2022/08/04 12:04:33;;;;;;;;;;;;;;;-142.75;67.39;74596.41;5012449;28;19913;-65
2022/08/04 12:07:22;;;;;;;;;;;;;;;-142.75;66.21;74551.16;5012346;28;19941;-65
2022/08/04 12:09:51;;;;;;;;;;;;;;;-142.75;64.57;74568.84;4984161;28;20398;-65
2022/08/04 12:12:16;;;;;;;;;;;;;;;-142.75;64.84;74578.69;5012521;28;20008;-65
2022/08/04 12:14:46;;;;;;;;;;;;;;;-142.75;66.44;74564.91;5012486;28;20371;-65
2022/08/04 12:17:14;;;;;;;;;;;;;;;-142.75;65.19;74515.72;5012240;28;19914;-65
2022/08/04 12:20:01;;;;;;;;;;;;;;;-142.75;65.28;74513.75;5012275;28;19968;-65
2022/08/04 12:22:28;;;;;;;;;;;;;;;-142.75;60.77;74468.50;5012337;28;20367;-65
2022/08/04 12:25:22;;;;;;;;;;;;;;;-142.75;62.05;74460.63;5012063;28;19956;-65
2022/08/04 12:27:50;;;;;;;;;;;;;;;-142.75;61.64;74442.94;4999097;28;20356;-65
2022/08/04 12:30:16;;;;;;;;;;;;;;;-142.75;62.41;74521.63;5012165;28;19917;-65
2022/08/04 12:32:45;;;;;;;;;;;;;;;-142.75;61.96;74509.81;4998169;28;19920;-65
2022/08/04 12:35:10;;;;;;;;;;;;;;;-142.75;60.84;74531.47;5015764;28;20000;-64
2022/08/04 12:37:58;;;;;;;;;;;;;;;-142.75;61.49;74566.88;5015716;28;19941;-65
2022/08/04 12:40:30;;;;;;;;;;;;;;;-142.75;61.35;74566.88;5015268;28;19921;-65